sensor_id;sensor_type;location;lat;lon;timestamp;P1;durP1;ratioP1;P2;durP2;ratioP2
69087;SDS011;56190;43.562;5.036;2023-03-20T00:01:18;4.53;;;2.85;;
69087;SDS011;56190;43.562;5.036;2023-03-20T00:03:44;3.42;;;3.13;;
69087;SDS011;56190;43.562;5.036;2023-03-20T00:06:16;4.53;;;3.08;;
69087;SDS011;56190;43.562;5.036;2023-03-20T00:14:06;4.97;;;3.45;;
69087;SDS011;56190;43.562;5.036;2023-03-20T00:16:35;6.32;;;3.55;;
69087;SDS011;56190;43.562;5.036;2023-03-20T00:19:01;4.80;;;3.42;;
69087;SDS011;56190;43.562;5.036;2023-03-20T00:21:27;4.70;;;3.78;;
69087;SDS011;56190;43.562;5.036;2023-03-20T00:23:53;5.80;;;3.70;;
69087;SDS011;56190;43.562;5.036;2023-03-20T00:26:27;4.75;;;3.83;;
69087;SDS011;56190;43.562;5.036;2023-03-20T00:28:52;4.80;;;3.90;;
69087;SDS011;56190;43.562;5.036;2023-03-20T00:31:24;7.50;;;4.18;;
69087;SDS011;56190;43.562;5.036;2023-03-20T00:33:51;5.18;;;4.03;;
69087;SDS011;56190;43.562;5.036;2023-03-20T00:36:16;6.22;;;4.15;;
69087;SDS011;56190;43.562;5.036;2023-03-20T00:38:42;5.40;;;4.45;;
69087;SDS011;56190;43.562;5.036;2023-03-20T00:41:17;4.78;;;3.90;;
69087;SDS011;56190;43.562;5.036;2023-03-20T00:43:44;6.40;;;4.30;;
69087;SDS011;56190;43.562;5.036;2023-03-20T00:46:11;4.53;;;4.10;;
69087;SDS011;56190;43.562;5.036;2023-03-20T00:48:37;3.95;;;3.55;;
69087;SDS011;56190;43.562;5.036;2023-03-20T00:51:04;5.13;;;4.45;;
69087;SDS011;56190;43.562;5.036;2023-03-20T00:53:29;7.18;;;5.20;;
69087;SDS011;56190;43.562;5.036;2023-03-20T00:55:55;5.75;;;4.07;;
69087;SDS011;56190;43.562;5.036;2023-03-20T00:58:20;4.90;;;4.22;;
69087;SDS011;56190;43.562;5.036;2023-03-20T01:00:45;5.05;;;4.22;;
69087;SDS011;56190;43.562;5.036;2023-03-20T01:05:39;6.60;;;5.90;;
69087;SDS011;56190;43.562;5.036;2023-03-20T01:08:10;6.60;;;5.85;;
69087;SDS011;56190;43.562;5.036;2023-03-20T01:10:36;6.70;;;5.93;;
69087;SDS011;56190;43.562;5.036;2023-03-20T01:13:01;8.55;;;7.72;;
69087;SDS011;56190;43.562;5.036;2023-03-20T01:15:29;10.43;;;7.88;;
69087;SDS011;56190;43.562;5.036;2023-03-20T01:17:55;11.20;;;9.15;;
69087;SDS011;56190;43.562;5.036;2023-03-20T01:20:22;10.82;;;8.77;;
69087;SDS011;56190;43.562;5.036;2023-03-20T01:22:48;9.75;;;8.07;;
69087;SDS011;56190;43.562;5.036;2023-03-20T01:25:13;12.13;;;9.80;;
69087;SDS011;56190;43.562;5.036;2023-03-20T01:27:38;11.30;;;9.50;;
69087;SDS011;56190;43.562;5.036;2023-03-20T01:30:15;10.63;;;8.77;;
69087;SDS011;56190;43.562;5.036;2023-03-20T01:32:40;11.15;;;9.68;;
69087;SDS011;56190;43.562;5.036;2023-03-20T01:35:10;11.13;;;9.43;;
69087;SDS011;56190;43.562;5.036;2023-03-20T01:37:35;11.48;;;9.55;;
69087;SDS011;56190;43.562;5.036;2023-03-20T01:40:01;9.82;;;8.48;;
69087;SDS011;56190;43.562;5.036;2023-03-20T01:42:26;11.65;;;9.43;;
69087;SDS011;56190;43.562;5.036;2023-03-20T01:44:51;11.13;;;9.75;;
69087;SDS011;56190;43.562;5.036;2023-03-20T01:47:22;10.23;;;9.13;;
69087;SDS011;56190;43.562;5.036;2023-03-20T01:52:31;8.88;;;7.97;;
69087;SDS011;56190;43.562;5.036;2023-03-20T01:54:57;11.07;;;8.98;;
69087;SDS011;56190;43.562;5.036;2023-03-20T01:57:22;10.18;;;8.15;;
69087;SDS011;56190;43.562;5.036;2023-03-20T01:59:50;10.52;;;9.43;;
69087;SDS011;56190;43.562;5.036;2023-03-20T02:02:22;11.75;;;8.77;;
69087;SDS011;56190;43.562;5.036;2023-03-20T02:04:50;11.20;;;9.32;;
69087;SDS011;56190;43.562;5.036;2023-03-20T02:07:16;12.07;;;9.27;;
69087;SDS011;56190;43.562;5.036;2023-03-20T02:09:42;11.70;;;8.95;;
69087;SDS011;56190;43.562;5.036;2023-03-20T02:12:07;10.35;;;9.23;;
69087;SDS011;56190;43.562;5.036;2023-03-20T02:14:33;10.05;;;8.35;;
69087;SDS011;56190;43.562;5.036;2023-03-20T02:16:59;10.23;;;7.95;;
69087;SDS011;56190;43.562;5.036;2023-03-20T02:19:28;10.63;;;8.55;;
69087;SDS011;56190;43.562;5.036;2023-03-20T02:42:12;7.05;;;5.40;;
69087;SDS011;56190;43.562;5.036;2023-03-20T03:02:38;3.40;;;3.10;;
69087;SDS011;56190;43.562;5.036;2023-03-20T03:05:10;3.10;;;2.80;;
69087;SDS011;56190;43.562;5.036;2023-03-20T03:07:36;4.28;;;2.50;;
69087;SDS011;56190;43.562;5.036;2023-03-20T03:11:04;2.60;;;2.40;;
69087;SDS011;56190;43.562;5.036;2023-03-20T03:12:58;3.40;;;2.60;;
69087;SDS011;56190;43.562;5.036;2023-03-20T03:15:35;3.40;;;2.72;;
69087;SDS011;56190;43.562;5.036;2023-03-20T03:18:01;2.95;;;2.63;;
69087;SDS011;56190;43.562;5.036;2023-03-20T03:20:31;2.65;;;2.33;;
69087;SDS011;56190;43.562;5.036;2023-03-20T03:22:57;2.95;;;2.50;;
69087;SDS011;56190;43.562;5.036;2023-03-20T03:25:24;1.88;;;1.70;;
69087;SDS011;56190;43.562;5.036;2023-03-20T03:27:53;2.30;;;2.10;;
69087;SDS011;56190;43.562;5.036;2023-03-20T03:30:23;2.50;;;1.60;;
69087;SDS011;56190;43.562;5.036;2023-03-20T03:32:52;2.22;;;1.70;;
69087;SDS011;56190;43.562;5.036;2023-03-20T03:35:21;2.17;;;1.70;;
69087;SDS011;56190;43.562;5.036;2023-03-20T03:42:43;1.88;;;1.27;;
69087;SDS011;56190;43.562;5.036;2023-03-20T03:45:18;1.48;;;1.38;;
69087;SDS011;56190;43.562;5.036;2023-03-20T03:48:06;1.88;;;1.63;;
69087;SDS011;56190;43.562;5.036;2023-03-20T03:53:01;1.27;;;1.17;;
69087;SDS011;56190;43.562;5.036;2023-03-20T03:55:28;1.20;;;1.08;;
69087;SDS011;56190;43.562;5.036;2023-03-20T03:58:42;1.20;;;1.10;;
69087;SDS011;56190;43.562;5.036;2023-03-20T04:00:42;1.10;;;1.00;;
69087;SDS011;56190;43.562;5.036;2023-03-20T04:03:08;1.48;;;1.05;;
69087;SDS011;56190;43.562;5.036;2023-03-20T04:05:35;1.70;;;0.80;;
69087;SDS011;56190;43.562;5.036;2023-03-20T04:08:02;2.63;;;0.93;;
69087;SDS011;56190;43.562;5.036;2023-03-20T04:10:27;1.70;;;1.15;;
69087;SDS011;56190;43.562;5.036;2023-03-20T04:12:52;1.50;;;1.10;;
69087;SDS011;56190;43.562;5.036;2023-03-20T04:15:18;1.75;;;1.10;;
69087;SDS011;56190;43.562;5.036;2023-03-20T04:17:45;1.73;;;1.00;;
69087;SDS011;56190;43.562;5.036;2023-03-20T04:20:11;1.35;;;1.10;;
69087;SDS011;56190;43.562;5.036;2023-03-20T04:22:36;1.10;;;0.90;;
69087;SDS011;56190;43.562;5.036;2023-03-20T04:25:04;1.65;;;1.00;;
69087;SDS011;56190;43.562;5.036;2023-03-20T04:27:30;1.60;;;0.77;;
69087;SDS011;56190;43.562;5.036;2023-03-20T04:29:56;1.25;;;0.90;;
69087;SDS011;56190;43.562;5.036;2023-03-20T04:32:21;1.30;;;1.15;;
69087;SDS011;56190;43.562;5.036;2023-03-20T04:34:46;1.42;;;1.00;;
69087;SDS011;56190;43.562;5.036;2023-03-20T04:37:11;2.47;;;1.10;;
69087;SDS011;56190;43.562;5.036;2023-03-20T04:39:37;1.05;;;0.90;;
69087;SDS011;56190;43.562;5.036;2023-03-20T04:42:03;2.17;;;1.05;;
69087;SDS011;56190;43.562;5.036;2023-03-20T04:44:28;2.30;;;0.93;;
69087;SDS011;56190;43.562;5.036;2023-03-20T04:46:53;2.15;;;0.90;;
69087;SDS011;56190;43.562;5.036;2023-03-20T04:49:19;3.17;;;1.08;;
69087;SDS011;56190;43.562;5.036;2023-03-20T04:51:44;1.40;;;1.02;;
69087;SDS011;56190;43.562;5.036;2023-03-20T04:54:09;1.30;;;0.82;;
69087;SDS011;56190;43.562;5.036;2023-03-20T04:56:35;1.30;;;1.00;;
69087;SDS011;56190;43.562;5.036;2023-03-20T04:59:00;0.85;;;0.85;;
69087;SDS011;56190;43.562;5.036;2023-03-20T05:01:25;1.23;;;0.90;;
69087;SDS011;56190;43.562;5.036;2023-03-20T05:03:50;1.50;;;1.00;;
69087;SDS011;56190;43.562;5.036;2023-03-20T05:06:16;1.80;;;1.33;;
69087;SDS011;56190;43.562;5.036;2023-03-20T05:08:41;1.42;;;1.00;;
69087;SDS011;56190;43.562;5.036;2023-03-20T05:11:07;2.70;;;1.08;;
69087;SDS011;56190;43.562;5.036;2023-03-20T05:13:32;1.70;;;1.02;;
69087;SDS011;56190;43.562;5.036;2023-03-20T05:15:57;2.58;;;1.30;;
69087;SDS011;56190;43.562;5.036;2023-03-20T05:18:23;1.38;;;0.95;;
69087;SDS011;56190;43.562;5.036;2023-03-20T05:20:48;1.33;;;0.90;;
69087;SDS011;56190;43.562;5.036;2023-03-20T05:23:13;1.85;;;0.90;;
69087;SDS011;56190;43.562;5.036;2023-03-20T05:25:39;2.50;;;0.80;;
69087;SDS011;56190;43.562;5.036;2023-03-20T05:28:04;2.42;;;1.10;;
69087;SDS011;56190;43.562;5.036;2023-03-20T05:30:30;1.83;;;0.88;;
69087;SDS011;56190;43.562;5.036;2023-03-20T05:32:55;1.67;;;1.13;;
69087;SDS011;56190;43.562;5.036;2023-03-20T05:35:20;2.20;;;0.90;;
69087;SDS011;56190;43.562;5.036;2023-03-20T05:37:46;1.27;;;1.00;;
69087;SDS011;56190;43.562;5.036;2023-03-20T05:40:12;2.25;;;0.90;;
69087;SDS011;56190;43.562;5.036;2023-03-20T05:42:38;1.52;;;0.80;;
69087;SDS011;56190;43.562;5.036;2023-03-20T05:45:03;2.05;;;0.98;;
69087;SDS011;56190;43.562;5.036;2023-03-20T05:47:28;1.90;;;0.90;;
69087;SDS011;56190;43.562;5.036;2023-03-20T05:49:54;2.00;;;0.90;;
69087;SDS011;56190;43.562;5.036;2023-03-20T05:52:19;1.20;;;0.82;;
69087;SDS011;56190;43.562;5.036;2023-03-20T05:54:45;2.47;;;1.02;;
69087;SDS011;56190;43.562;5.036;2023-03-20T05:57:11;1.08;;;0.90;;
69087;SDS011;56190;43.562;5.036;2023-03-20T05:59:36;1.40;;;0.93;;
69087;SDS011;56190;43.562;5.036;2023-03-20T06:02:01;1.40;;;1.00;;
69087;SDS011;56190;43.562;5.036;2023-03-20T06:04:27;2.00;;;1.00;;
69087;SDS011;56190;43.562;5.036;2023-03-20T06:06:52;2.38;;;0.90;;
69087;SDS011;56190;43.562;5.036;2023-03-20T06:09:17;1.63;;;1.10;;
69087;SDS011;56190;43.562;5.036;2023-03-20T06:11:42;2.35;;;0.90;;
69087;SDS011;56190;43.562;5.036;2023-03-20T06:14:08;3.03;;;1.05;;
69087;SDS011;56190;43.562;5.036;2023-03-20T06:16:33;1.42;;;1.00;;
69087;SDS011;56190;43.562;5.036;2023-03-20T06:18:58;2.20;;;1.00;;
69087;SDS011;56190;43.562;5.036;2023-03-20T06:21:23;2.03;;;1.20;;
69087;SDS011;56190;43.562;5.036;2023-03-20T06:23:49;1.63;;;0.95;;
69087;SDS011;56190;43.562;5.036;2023-03-20T06:26:14;1.52;;;0.90;;
69087;SDS011;56190;43.562;5.036;2023-03-20T06:28:39;1.58;;;1.27;;
69087;SDS011;56190;43.562;5.036;2023-03-20T06:31:05;1.73;;;1.05;;
69087;SDS011;56190;43.562;5.036;2023-03-20T06:33:31;2.63;;;1.20;;
69087;SDS011;56190;43.562;5.036;2023-03-20T06:35:56;1.70;;;1.20;;
69087;SDS011;56190;43.562;5.036;2023-03-20T06:38:21;2.40;;;1.80;;
69087;SDS011;56190;43.562;5.036;2023-03-20T06:40:46;3.22;;;1.80;;
69087;SDS011;56190;43.562;5.036;2023-03-20T06:43:12;4.13;;;2.55;;
69087;SDS011;56190;43.562;5.036;2023-03-20T06:45:37;4.00;;;2.60;;
69087;SDS011;56190;43.562;5.036;2023-03-20T06:48:06;3.25;;;2.83;;
69087;SDS011;56190;43.562;5.036;2023-03-20T06:50:31;3.50;;;2.72;;
69087;SDS011;56190;43.562;5.036;2023-03-20T06:52:57;3.25;;;2.63;;
69087;SDS011;56190;43.562;5.036;2023-03-20T06:55:22;4.82;;;2.70;;
69087;SDS011;56190;43.562;5.036;2023-03-20T06:57:47;5.18;;;2.92;;
69087;SDS011;56190;43.562;5.036;2023-03-20T07:00:13;5.85;;;2.88;;
69087;SDS011;56190;43.562;5.036;2023-03-20T07:02:38;3.42;;;2.50;;
69087;SDS011;56190;43.562;5.036;2023-03-20T07:05:03;2.55;;;2.13;;
69087;SDS011;56190;43.562;5.036;2023-03-20T07:07:29;2.47;;;1.60;;
69087;SDS011;56190;43.562;5.036;2023-03-20T07:09:54;2.00;;;1.40;;
69087;SDS011;56190;43.562;5.036;2023-03-20T07:12:19;1.70;;;1.50;;
69087;SDS011;56190;43.562;5.036;2023-03-20T07:14:44;2.40;;;1.30;;
69087;SDS011;56190;43.562;5.036;2023-03-20T07:17:10;3.53;;;1.40;;
69087;SDS011;56190;43.562;5.036;2023-03-20T07:19:36;1.67;;;1.23;;
69087;SDS011;56190;43.562;5.036;2023-03-20T07:22:02;2.55;;;1.40;;
69087;SDS011;56190;43.562;5.036;2023-03-20T07:24:28;1.70;;;1.20;;
69087;SDS011;56190;43.562;5.036;2023-03-20T07:26:53;1.80;;;1.30;;
69087;SDS011;56190;43.562;5.036;2023-03-20T07:29:19;1.63;;;1.23;;
69087;SDS011;56190;43.562;5.036;2023-03-20T07:31:44;2.40;;;1.10;;
69087;SDS011;56190;43.562;5.036;2023-03-20T07:34:09;1.27;;;1.17;;
69087;SDS011;56190;43.562;5.036;2023-03-20T07:36:35;1.92;;;1.27;;
69087;SDS011;56190;43.562;5.036;2023-03-20T07:39:00;3.63;;;1.30;;
69087;SDS011;56190;43.562;5.036;2023-03-20T07:41:25;1.50;;;1.02;;
69087;SDS011;56190;43.562;5.036;2023-03-20T07:43:50;2.47;;;1.42;;
69087;SDS011;56190;43.562;5.036;2023-03-20T07:46:16;1.85;;;1.50;;
69087;SDS011;56190;43.562;5.036;2023-03-20T07:48:41;2.50;;;1.25;;
69087;SDS011;56190;43.562;5.036;2023-03-20T07:51:06;2.75;;;1.60;;
69087;SDS011;56190;43.562;5.036;2023-03-20T07:53:32;1.65;;;1.20;;
69087;SDS011;56190;43.562;5.036;2023-03-20T07:55:57;2.28;;;1.27;;
69087;SDS011;56190;43.562;5.036;2023-03-20T07:58:22;2.60;;;1.40;;
69087;SDS011;56190;43.562;5.036;2023-03-20T08:00:47;2.47;;;1.38;;
69087;SDS011;56190;43.562;5.036;2023-03-20T08:03:13;1.25;;;1.10;;
69087;SDS011;56190;43.562;5.036;2023-03-20T08:05:38;2.15;;;1.50;;
69087;SDS011;56190;43.562;5.036;2023-03-20T08:08:04;1.88;;;1.42;;
69087;SDS011;56190;43.562;5.036;2023-03-20T08:10:29;2.15;;;1.27;;
69087;SDS011;56190;43.562;5.036;2023-03-20T08:12:55;1.85;;;1.40;;
69087;SDS011;56190;43.562;5.036;2023-03-20T08:15:20;1.63;;;1.45;;
69087;SDS011;56190;43.562;5.036;2023-03-20T08:17:45;3.72;;;1.70;;
69087;SDS011;56190;43.562;5.036;2023-03-20T08:20:11;4.93;;;2.00;;
69087;SDS011;56190;43.562;5.036;2023-03-20T08:22:37;2.05;;;1.45;;
69087;SDS011;56190;43.562;5.036;2023-03-20T08:25:02;4.53;;;1.33;;
69087;SDS011;56190;43.562;5.036;2023-03-20T08:27:28;2.05;;;1.30;;
69087;SDS011;56190;43.562;5.036;2023-03-20T08:29:53;1.83;;;1.50;;
69087;SDS011;56190;43.562;5.036;2023-03-20T08:32:18;2.03;;;1.40;;
69087;SDS011;56190;43.562;5.036;2023-03-20T08:34:44;1.63;;;1.30;;
69087;SDS011;56190;43.562;5.036;2023-03-20T08:37:09;1.48;;;1.30;;
69087;SDS011;56190;43.562;5.036;2023-03-20T08:39:36;2.67;;;1.50;;
69087;SDS011;56190;43.562;5.036;2023-03-20T08:42:02;3.47;;;1.45;;
69087;SDS011;56190;43.562;5.036;2023-03-20T08:44:27;3.85;;;1.52;;
69087;SDS011;56190;43.562;5.036;2023-03-20T08:46:52;1.83;;;1.40;;
69087;SDS011;56190;43.562;5.036;2023-03-20T08:49:19;4.15;;;1.38;;
69087;SDS011;56190;43.562;5.036;2023-03-20T08:51:44;2.10;;;1.20;;
69087;SDS011;56190;43.562;5.036;2023-03-20T08:54:10;2.50;;;1.48;;
69087;SDS011;56190;43.562;5.036;2023-03-20T08:56:35;1.80;;;1.10;;
69087;SDS011;56190;43.562;5.036;2023-03-20T08:59:01;2.67;;;1.20;;
69087;SDS011;56190;43.562;5.036;2023-03-20T09:01:26;1.85;;;1.17;;
69087;SDS011;56190;43.562;5.036;2023-03-20T09:03:51;1.30;;;1.20;;
69087;SDS011;56190;43.562;5.036;2023-03-20T09:06:17;4.30;;;1.08;;
69087;SDS011;56190;43.562;5.036;2023-03-20T09:08:42;2.30;;;1.35;;
69087;SDS011;56190;43.562;5.036;2023-03-20T09:11:07;2.13;;;1.25;;
69087;SDS011;56190;43.562;5.036;2023-03-20T09:13:32;1.58;;;1.00;;
69087;SDS011;56190;43.562;5.036;2023-03-20T09:15:58;1.80;;;1.00;;
69087;SDS011;56190;43.562;5.036;2023-03-20T09:18:24;2.40;;;1.08;;
69087;SDS011;56190;43.562;5.036;2023-03-20T09:20:50;1.67;;;1.00;;
69087;SDS011;56190;43.562;5.036;2023-03-20T09:23:15;1.52;;;1.20;;
69087;SDS011;56190;43.562;5.036;2023-03-20T09:25:41;2.17;;;0.88;;
69087;SDS011;56190;43.562;5.036;2023-03-20T09:28:06;1.95;;;1.30;;
69087;SDS011;56190;43.562;5.036;2023-03-20T09:30:31;1.88;;;1.00;;
69087;SDS011;56190;43.562;5.036;2023-03-20T09:32:57;2.35;;;1.17;;
69087;SDS011;56190;43.562;5.036;2023-03-20T09:35:22;3.55;;;1.35;;
69087;SDS011;56190;43.562;5.036;2023-03-20T09:37:47;2.47;;;1.10;;
69087;SDS011;56190;43.562;5.036;2023-03-20T09:40:26;1.95;;;0.95;;
69087;SDS011;56190;43.562;5.036;2023-03-20T09:48:01;2.70;;;1.00;;
69087;SDS011;56190;43.562;5.036;2023-03-20T09:53:44;1.63;;;1.00;;
69087;SDS011;56190;43.562;5.036;2023-03-20T09:55:43;1.55;;;1.00;;
69087;SDS011;56190;43.562;5.036;2023-03-20T09:58:11;1.90;;;1.10;;
69087;SDS011;56190;43.562;5.036;2023-03-20T10:00:36;1.05;;;0.80;;
69087;SDS011;56190;43.562;5.036;2023-03-20T10:03:04;2.17;;;1.08;;
69087;SDS011;56190;43.562;5.036;2023-03-20T10:05:34;1.15;;;1.00;;
69087;SDS011;56190;43.562;5.036;2023-03-20T10:08:02;2.78;;;1.08;;
69087;SDS011;56190;43.562;5.036;2023-03-20T10:13:28;1.52;;;0.80;;
69087;SDS011;56190;43.562;5.036;2023-03-20T10:18:23;1.35;;;0.68;;
69087;SDS011;56190;43.562;5.036;2023-03-20T10:23:40;0.70;;;0.68;;
69087;SDS011;56190;43.562;5.036;2023-03-20T10:26:11;1.23;;;0.73;;
69087;SDS011;56190;43.562;5.036;2023-03-20T10:28:45;1.42;;;0.68;;
69087;SDS011;56190;43.562;5.036;2023-03-20T10:41:36;1.45;;;0.80;;
69087;SDS011;56190;43.562;5.036;2023-03-20T10:44:02;1.38;;;0.70;;
69087;SDS011;56190;43.562;5.036;2023-03-20T10:46:29;1.77;;;0.80;;
69087;SDS011;56190;43.562;5.036;2023-03-20T10:51:21;0.73;;;0.60;;
69087;SDS011;56190;43.562;5.036;2023-03-20T10:53:54;2.13;;;0.90;;
69087;SDS011;56190;43.562;5.036;2023-03-20T10:56:26;1.42;;;0.60;;
69087;SDS011;56190;43.562;5.036;2023-03-20T10:58:56;1.33;;;0.60;;
69087;SDS011;56190;43.562;5.036;2023-03-20T11:01:23;1.55;;;0.65;;
69087;SDS011;56190;43.562;5.036;2023-03-20T11:03:48;2.05;;;0.75;;
69087;SDS011;56190;43.562;5.036;2023-03-20T11:06:17;0.88;;;0.50;;
69087;SDS011;56190;43.562;5.036;2023-03-20T11:08:46;1.33;;;0.70;;
69087;SDS011;56190;43.562;5.036;2023-03-20T11:11:12;2.85;;;0.70;;
69087;SDS011;56190;43.562;5.036;2023-03-20T11:13:38;0.80;;;0.60;;
69087;SDS011;56190;43.562;5.036;2023-03-20T11:18:33;1.15;;;0.75;;
69087;SDS011;56190;43.562;5.036;2023-03-20T11:21:00;4.32;;;0.90;;
69087;SDS011;56190;43.562;5.036;2023-03-20T11:23:26;1.40;;;0.50;;
69087;SDS011;56190;43.562;5.036;2023-03-20T11:25:55;1.50;;;0.60;;
69087;SDS011;56190;43.562;5.036;2023-03-20T11:28:32;0.65;;;0.50;;
69087;SDS011;56190;43.562;5.036;2023-03-20T11:30:58;1.13;;;0.68;;
69087;SDS011;56190;43.562;5.036;2023-03-20T11:33:25;0.82;;;0.40;;
69087;SDS011;56190;43.562;5.036;2023-03-20T11:35:51;0.98;;;0.60;;
69087;SDS011;56190;43.562;5.036;2023-03-20T11:38:20;1.67;;;0.70;;
69087;SDS011;56190;43.562;5.036;2023-03-20T11:40:46;3.03;;;0.70;;
69087;SDS011;56190;43.562;5.036;2023-03-20T11:45:47;0.70;;;0.60;;
69087;SDS011;56190;43.562;5.036;2023-03-20T11:48:17;1.10;;;0.50;;
69087;SDS011;56190;43.562;5.036;2023-03-20T11:50:58;0.60;;;0.40;;
69087;SDS011;56190;43.562;5.036;2023-03-20T11:53:35;1.42;;;0.60;;
69087;SDS011;56190;43.562;5.036;2023-03-20T11:56:22;1.95;;;0.60;;
69087;SDS011;56190;43.562;5.036;2023-03-20T12:01:13;1.10;;;0.60;;
69087;SDS011;56190;43.562;5.036;2023-03-20T12:03:40;1.13;;;0.40;;
69087;SDS011;56190;43.562;5.036;2023-03-20T12:06:06;1.35;;;0.50;;
69087;SDS011;56190;43.562;5.036;2023-03-20T12:08:32;0.73;;;0.60;;
69087;SDS011;56190;43.562;5.036;2023-03-20T12:11:00;1.55;;;0.63;;
69087;SDS011;56190;43.562;5.036;2023-03-20T12:13:28;0.60;;;0.50;;
69087;SDS011;56190;43.562;5.036;2023-03-20T12:15:58;0.77;;;0.40;;
69087;SDS011;56190;43.562;5.036;2023-03-20T12:28:36;1.67;;;0.77;;
69087;SDS011;56190;43.562;5.036;2023-03-20T12:31:05;1.00;;;0.90;;
69087;SDS011;56190;43.562;5.036;2023-03-20T12:36:24;2.00;;;0.80;;
69087;SDS011;56190;43.562;5.036;2023-03-20T12:38:52;2.03;;;0.82;;
69087;SDS011;56190;43.562;5.036;2023-03-20T12:41:20;1.15;;;0.60;;
69087;SDS011;56190;43.562;5.036;2023-03-20T12:44:04;0.70;;;0.70;;
69087;SDS011;56190;43.562;5.036;2023-03-20T12:54:18;1.38;;;0.70;;
69087;SDS011;56190;43.562;5.036;2023-03-20T13:01:49;0.93;;;0.80;;
69087;SDS011;56190;43.562;5.036;2023-03-20T13:06:50;1.35;;;0.70;;
69087;SDS011;56190;43.562;5.036;2023-03-20T13:16:51;2.30;;;0.90;;
69087;SDS011;56190;43.562;5.036;2023-03-20T13:24:41;1.67;;;1.27;;
69087;SDS011;56190;43.562;5.036;2023-03-20T13:30:02;2.13;;;1.00;;
69087;SDS011;56190;43.562;5.036;2023-03-20T13:32:44;1.20;;;0.80;;
69087;SDS011;56190;43.562;5.036;2023-03-20T13:37:59;2.22;;;0.80;;
69087;SDS011;56190;43.562;5.036;2023-03-20T13:40:26;1.17;;;0.50;;
69087;SDS011;56190;43.562;5.036;2023-03-20T13:42:53;1.38;;;0.70;;
69087;SDS011;56190;43.562;5.036;2023-03-20T13:45:25;0.82;;;0.60;;
69087;SDS011;56190;43.562;5.036;2023-03-20T13:47:52;1.30;;;0.80;;
69087;SDS011;56190;43.562;5.036;2023-03-20T13:52:48;1.02;;;0.70;;
69087;SDS011;56190;43.562;5.036;2023-03-20T14:03:20;0.68;;;0.60;;
69087;SDS011;56190;43.562;5.036;2023-03-20T14:05:49;1.38;;;0.63;;
69087;SDS011;56190;43.562;5.036;2023-03-20T14:11:04;1.65;;;0.80;;
69087;SDS011;56190;43.562;5.036;2023-03-20T14:13:30;1.00;;;0.70;;
69087;SDS011;56190;43.562;5.036;2023-03-20T14:15:56;1.13;;;0.70;;
69087;SDS011;56190;43.562;5.036;2023-03-20T14:18:23;5.10;;;1.20;;
69087;SDS011;56190;43.562;5.036;2023-03-20T14:21:01;1.23;;;0.82;;
69087;SDS011;56190;43.562;5.036;2023-03-20T14:23:35;1.38;;;0.80;;
69087;SDS011;56190;43.562;5.036;2023-03-20T14:26:04;1.30;;;0.90;;
69087;SDS011;56190;43.562;5.036;2023-03-20T14:28:42;1.53;;;0.73;;
69087;SDS011;56190;43.562;5.036;2023-03-20T14:31:41;1.92;;;0.70;;
69087;SDS011;56190;43.562;5.036;2023-03-20T14:49:15;1.35;;;0.80;;
69087;SDS011;56190;43.562;5.036;2023-03-20T14:51:44;1.30;;;0.90;;
69087;SDS011;56190;43.562;5.036;2023-03-20T14:56:46;1.75;;;1.02;;
69087;SDS011;56190;43.562;5.036;2023-03-20T14:59:12;0.98;;;0.77;;
69087;SDS011;56190;43.562;5.036;2023-03-20T15:04:04;1.17;;;0.88;;
69087;SDS011;56190;43.562;5.036;2023-03-20T15:06:30;1.13;;;0.93;;
69087;SDS011;56190;43.562;5.036;2023-03-20T15:09:00;1.50;;;0.75;;
69087;SDS011;56190;43.562;5.036;2023-03-20T15:11:27;1.93;;;1.13;;
69087;SDS011;56190;43.562;5.036;2023-03-20T15:13:53;2.10;;;1.08;;
69087;SDS011;56190;43.562;5.036;2023-03-20T15:16:29;1.95;;;0.98;;
69087;SDS011;56190;43.562;5.036;2023-03-20T15:18:55;1.50;;;1.00;;
69087;SDS011;56190;43.562;5.036;2023-03-20T15:21:35;2.15;;;1.00;;
69087;SDS011;56190;43.562;5.036;2023-03-20T15:24:01;1.75;;;1.08;;
69087;SDS011;56190;43.562;5.036;2023-03-20T15:26:26;1.52;;;0.93;;
69087;SDS011;56190;43.562;5.036;2023-03-20T15:28:58;2.97;;;1.08;;
69087;SDS011;56190;43.562;5.036;2023-03-20T15:31:34;2.03;;;0.90;;
69087;SDS011;56190;43.562;5.036;2023-03-20T15:34:01;1.25;;;0.98;;
69087;SDS011;56190;43.562;5.036;2023-03-20T15:36:29;1.70;;;1.10;;
69087;SDS011;56190;43.562;5.036;2023-03-20T15:39:06;1.52;;;1.10;;
69087;SDS011;56190;43.562;5.036;2023-03-20T15:41:33;1.60;;;1.02;;
69087;SDS011;56190;43.562;5.036;2023-03-20T15:44:42;1.92;;;1.10;;
69087;SDS011;56190;43.562;5.036;2023-03-20T15:49:19;1.98;;;1.10;;
69087;SDS011;56190;43.562;5.036;2023-03-20T15:51:45;1.42;;;1.33;;
69087;SDS011;56190;43.562;5.036;2023-03-20T15:54:12;2.50;;;1.13;;
69087;SDS011;56190;43.562;5.036;2023-03-20T15:56:37;1.95;;;1.10;;
69087;SDS011;56190;43.562;5.036;2023-03-20T15:59:08;1.98;;;1.00;;
69087;SDS011;56190;43.562;5.036;2023-03-20T16:01:35;1.73;;;1.10;;
69087;SDS011;56190;43.562;5.036;2023-03-20T16:04:00;1.63;;;1.08;;
69087;SDS011;56190;43.562;5.036;2023-03-20T16:06:25;1.52;;;1.00;;
69087;SDS011;56190;43.562;5.036;2023-03-20T16:08:58;1.90;;;1.05;;
69087;SDS011;56190;43.562;5.036;2023-03-20T16:11:23;3.33;;;1.38;;
69087;SDS011;56190;43.562;5.036;2023-03-20T16:13:49;1.13;;;0.95;;
69087;SDS011;56190;43.562;5.036;2023-03-20T16:16:19;1.50;;;1.02;;
69087;SDS011;56190;43.562;5.036;2023-03-20T16:18:46;1.52;;;1.13;;
69087;SDS011;56190;43.562;5.036;2023-03-20T16:21:21;1.50;;;0.95;;
69087;SDS011;56190;43.562;5.036;2023-03-20T16:23:48;1.20;;;0.85;;
69087;SDS011;56190;43.562;5.036;2023-03-20T16:26:16;1.15;;;0.90;;
69087;SDS011;56190;43.562;5.036;2023-03-20T16:28:44;2.00;;;1.30;;
69087;SDS011;56190;43.562;5.036;2023-03-20T16:31:17;1.45;;;0.98;;
69087;SDS011;56190;43.562;5.036;2023-03-20T16:33:44;1.77;;;1.00;;
69087;SDS011;56190;43.562;5.036;2023-03-20T16:36:16;1.83;;;1.00;;
69087;SDS011;56190;43.562;5.036;2023-03-20T16:39:07;3.85;;;1.15;;
69087;SDS011;56190;43.562;5.036;2023-03-20T16:41:31;1.35;;;1.05;;
69087;SDS011;56190;43.562;5.036;2023-03-20T16:44:26;1.17;;;0.93;;
69087;SDS011;56190;43.562;5.036;2023-03-20T16:46:57;2.35;;;1.10;;
69087;SDS011;56190;43.562;5.036;2023-03-20T16:51:58;2.90;;;1.10;;
69087;SDS011;56190;43.562;5.036;2023-03-20T16:54:25;3.83;;;1.50;;
69087;SDS011;56190;43.562;5.036;2023-03-20T16:56:52;2.17;;;1.00;;
69087;SDS011;56190;43.562;5.036;2023-03-20T16:59:18;2.45;;;1.20;;
69087;SDS011;56190;43.562;5.036;2023-03-20T17:01:44;2.45;;;0.90;;
69087;SDS011;56190;43.562;5.036;2023-03-20T17:06:38;3.08;;;1.45;;
69087;SDS011;56190;43.562;5.036;2023-03-20T17:09:09;2.42;;;1.15;;
69087;SDS011;56190;43.562;5.036;2023-03-20T17:11:43;3.05;;;1.40;;
69087;SDS011;56190;43.562;5.036;2023-03-20T17:14:09;2.78;;;1.13;;
69087;SDS011;56190;43.562;5.036;2023-03-20T17:16:34;4.07;;;1.42;;
69087;SDS011;56190;43.562;5.036;2023-03-20T17:19:03;3.75;;;1.55;;
69087;SDS011;56190;43.562;5.036;2023-03-20T17:21:29;4.18;;;1.63;;
69087;SDS011;56190;43.562;5.036;2023-03-20T17:23:54;4.68;;;1.50;;
69087;SDS011;56190;43.562;5.036;2023-03-20T17:26:19;4.10;;;1.55;;
69087;SDS011;56190;43.562;5.036;2023-03-20T17:28:45;1.85;;;1.20;;
69087;SDS011;56190;43.562;5.036;2023-03-20T17:31:14;2.97;;;1.17;;
69087;SDS011;56190;43.562;5.036;2023-03-20T17:33:40;1.85;;;1.02;;
69087;SDS011;56190;43.562;5.036;2023-03-20T17:36:11;2.75;;;1.25;;
69087;SDS011;56190;43.562;5.036;2023-03-20T17:38:38;2.15;;;1.17;;
69087;SDS011;56190;43.562;5.036;2023-03-20T17:41:03;2.90;;;1.55;;
69087;SDS011;56190;43.562;5.036;2023-03-20T17:43:29;2.63;;;1.50;;
69087;SDS011;56190;43.562;5.036;2023-03-20T17:45:54;3.17;;;1.48;;
69087;SDS011;56190;43.562;5.036;2023-03-20T17:48:19;4.00;;;2.00;;
69087;SDS011;56190;43.562;5.036;2023-03-20T17:50:45;3.70;;;1.92;;